Time;durP1;ratioP1;P1;durP2;ratioP2;P2;SDS_P1;SDS_P2;PMS_P1;PMS_P2;Temp;Humidity;BMP_temperature;BMP_pressure;BME280_temperature;BME280_humidity;BME280_pressure;Samples;Min_cycle;Max_cycle;Signal;HPM_P1;HPM_P2
2024/01/17 00:00:28;;;;;;;9.38;3.28;;;0.60;99.90;;;;;;5052624;28;20124;-84
2024/01/17 00:02:54;;;;;;;11.10;3.83;;;0.60;99.90;;;;;;5045649;28;20119;-82
2024/01/17 00:05:20;;;;;;;8.77;3.35;;;0.60;99.90;;;;;;5060130;28;20048;-82
2024/01/17 00:07:46;;;;;;;6.28;3.17;;;0.60;99.90;;;;;;5055159;28;20055;-84
2024/01/17 00:10:11;;;;;;;6.35;3.15;;;0.60;99.90;;;;;;5053553;28;20080;-84
2024/01/17 00:12:37;;;;;;;10.77;3.83;;;0.60;99.90;;;;;;5041527;28;20071;-84
2024/01/17 00:15:03;;;;;;;6.40;3.10;;;0.60;99.90;;;;;;5055690;28;20040;-83
2024/01/17 00:17:29;;;;;;;8.38;3.55;;;0.60;99.90;;;;;;5041781;28;20102;-84
2024/01/17 00:19:54;;;;;;;7.05;3.10;;;0.60;99.90;;;;;;5068721;28;20048;-84
2024/01/17 00:22:20;;;;;;;7.95;3.30;;;0.50;99.90;;;;;;5066330;28;20481;-82
2024/01/17 00:24:46;;;;;;;9.95;3.50;;;0.50;99.90;;;;;;5056134;28;20055;-80
2024/01/17 00:27:13;;;;;;;6.80;2.95;;;0.60;99.90;;;;;;5059594;28;20500;-79
2024/01/17 00:29:39;;;;;;;7.80;3.55;;;0.50;99.90;;;;;;5061521;28;20454;-79
2024/01/17 00:32:04;;;;;;;9.07;3.22;;;0.50;99.90;;;;;;5065513;28;20224;-82
2024/01/17 00:34:30;;;;;;;12.20;3.47;;;0.50;99.90;;;;;;5063091;28;20044;-79
2024/01/17 00:36:56;;;;;;;9.32;3.35;;;0.50;99.90;;;;;;5043785;28;20052;-79
2024/01/17 00:39:22;;;;;;;7.15;3.55;;;0.50;99.90;;;;;;5055727;28;20036;-79
2024/01/17 00:41:49;;;;;;;8.00;4.13;;;0.40;99.90;;;;;;5062838;28;20051;-79
2024/01/17 00:44:18;;;;;;;7.72;3.85;;;0.40;99.90;;;;;;5056780;28;20137;-80
2024/01/17 00:46:45;;;;;;;7.20;3.38;;;0.50;99.90;;;;;;5063161;28;20044;-78
2024/01/17 00:49:11;;;;;;;8.93;3.90;;;0.40;99.90;;;;;;5054071;28;20045;-79
2024/01/17 00:51:37;;;;;;;10.60;3.70;;;0.40;99.90;;;;;;5060049;28;20421;-80
2024/01/17 00:54:03;;;;;;;13.43;4.13;;;0.40;99.90;;;;;;5054322;28;20045;-78
2024/01/17 00:56:32;;;;;;;8.45;4.10;;;0.40;99.90;;;;;;5066915;28;20069;-80
2024/01/17 00:58:58;;;;;;;8.77;3.65;;;0.40;99.90;;;;;;5057173;28;20116;-79
2024/01/17 01:01:24;;;;;;;8.07;3.75;;;0.50;99.90;;;;;;5058462;28;20120;-80
2024/01/17 01:03:50;;;;;;;7.57;3.42;;;0.40;99.90;;;;;;5058114;28;20566;-80
2024/01/17 01:06:15;;;;;;;10.52;3.80;;;0.50;99.90;;;;;;5068798;28;20041;-79
2024/01/17 01:08:41;;;;;;;9.98;4.05;;;0.40;99.90;;;;;;5064475;28;20049;-79
2024/01/17 01:11:07;;;;;;;7.05;3.38;;;0.50;99.90;;;;;;5060584;28;20075;-79
2024/01/17 01:13:33;;;;;;;10.10;3.55;;;0.50;99.90;;;;;;5054412;28;20124;-78
2024/01/17 01:15:59;;;;;;;8.57;3.97;;;0.50;99.90;;;;;;5054693;28;20899;-80
2024/01/17 01:18:24;;;;;;;9.98;4.18;;;0.50;99.90;;;;;;5068166;28;20469;-80
2024/01/17 01:20:50;;;;;;;10.13;3.58;;;0.60;99.90;;;;;;5066402;28;20049;-79
2024/01/17 01:23:16;;;;;;;8.63;3.90;;;0.50;99.90;;;;;;5072951;28;20373;-79
2024/01/17 01:25:41;;;;;;;13.63;4.43;;;0.50;99.90;;;;;;5073607;28;20063;-81
2024/01/17 01:28:07;;;;;;;7.55;4.10;;;0.50;99.90;;;;;;5057243;28;20446;-79
2024/01/17 01:30:33;;;;;;;10.13;4.43;;;0.50;99.90;;;;;;5053608;28;20052;-79
2024/01/17 01:32:58;;;;;;;8.98;4.68;;;1.20;99.90;;;;;;5055717;28;20128;-79
2024/01/17 01:35:24;;;;;;;9.02;4.40;;;0.50;99.90;;;;;;5071558;28;20049;-80
2024/01/17 01:37:50;;;;;;;11.55;4.93;;;0.50;99.90;;;;;;5058104;28;20132;-79
2024/01/17 01:40:15;;;;;;;11.05;5.55;;;0.50;99.90;;;;;;5057425;28;20056;-80
2024/01/17 01:42:44;;;;;;;14.00;5.68;;;0.50;99.90;;;;;;5060717;28;20041;-80
2024/01/17 01:45:10;;;;;;;11.13;4.75;;;0.50;99.90;;;;;;5071990;28;20499;-80
2024/01/17 01:47:37;;;;;;;9.13;4.97;;;0.50;99.90;;;;;;5043889;28;20037;-80
2024/01/17 01:50:05;;;;;;;13.18;6.10;;;0.80;99.90;;;;;;5064290;28;20147;-78
2024/01/17 01:52:33;;;;;;;12.25;5.63;;;0.50;99.90;;;;;;5061186;28;20048;-79
2024/01/17 01:55:00;;;;;;;12.52;5.85;;;0.80;99.90;;;;;;5059396;28;20052;-78
2024/01/17 01:57:28;;;;;;;12.57;6.05;;;0.40;99.90;;;;;;5063815;28;20119;-79
2024/01/17 01:59:55;;;;;;;12.52;6.30;;;0.40;99.90;;;;;;5061638;28;20049;-80
2024/01/17 02:02:22;;;;;;;14.00;6.13;;;0.40;99.90;;;;;;5064221;28;20472;-79
2024/01/17 02:04:48;;;;;;;13.90;6.68;;;0.40;99.90;;;;;;5069877;28;20048;-80
2024/01/17 02:07:16;;;;;;;13.73;6.88;;;0.40;99.90;;;;;;5053692;28;21785;-78
2024/01/17 02:09:44;;;;;;;13.70;6.40;;;0.40;99.90;;;;;;5062397;28;20086;-79
2024/01/17 02:12:10;;;;;;;16.35;6.63;;;0.40;99.90;;;;;;5072652;28;20045;-80
2024/01/17 02:14:40;;;;;;;11.70;6.95;;;0.40;99.90;;;;;;5069771;28;20054;-80
2024/01/17 02:17:07;;;;;;;15.07;7.93;;;1.40;99.90;;;;;;5061153;28;20044;-79
2024/01/17 02:19:33;;;;;;;14.05;6.50;;;0.40;99.90;;;;;;5061824;28;20048;-78
2024/01/17 02:21:59;;;;;;;14.50;7.57;;;0.70;99.90;;;;;;5058982;28;20063;-80
2024/01/17 02:24:24;;;;;;;11.23;6.50;;;0.40;99.90;;;;;;5055861;28;20053;-80
2024/01/17 02:26:50;;;;;;;13.70;8.00;;;0.40;99.90;;;;;;5062736;28;20056;-80
2024/01/17 02:29:16;;;;;;;16.65;7.25;;;0.40;99.90;;;;;;5057830;28;20049;-80
2024/01/17 02:31:44;;;;;;;18.13;7.60;;;0.40;99.90;;;;;;5064857;28;20036;-81
2024/01/17 02:34:10;;;;;;;13.70;7.18;;;0.40;99.90;;;;;;5059449;28;20095;-79
2024/01/17 02:36:36;;;;;;;17.13;8.50;;;0.40;99.90;;;;;;5052773;28;20040;-80
2024/01/17 02:39:02;;;;;;;17.83;7.40;;;0.40;99.90;;;;;;5061091;28;20041;-78
2024/01/17 02:41:27;;;;;;;12.90;7.80;;;0.40;99.90;;;;;;5058292;28;20052;-79
2024/01/17 02:43:53;;;;;;;14.68;7.50;;;1.40;99.90;;;;;;5056675;28;20036;-80
2024/01/17 02:46:19;;;;;;;18.50;8.40;;;0.40;99.90;;;;;;5059339;28;20044;-80
2024/01/17 02:48:45;;;;;;;15.02;8.75;;;0.40;99.90;;;;;;5068875;28;20058;-80
2024/01/17 02:51:10;;;;;;;14.77;8.07;;;0.40;99.90;;;;;;5065075;28;20395;-78
2024/01/17 02:53:36;;;;;;;14.55;8.93;;;0.30;99.90;;;;;;5066138;28;20049;-79
2024/01/17 02:56:02;;;;;;;15.23;8.63;;;0.30;99.90;;;;;;5063159;28;20045;-78
2024/01/17 02:58:27;;;;;;;17.23;9.10;;;0.30;99.90;;;;;;5068612;28;20044;-79
2024/01/17 03:00:53;;;;;;;16.02;9.15;;;0.30;99.90;;;;;;5066439;28;20048;-78
2024/01/17 03:03:18;;;;;;;16.50;9.82;;;0.80;99.90;;;;;;5059707;28;20048;-79
2024/01/17 03:05:44;;;;;;;15.07;8.68;;;0.30;99.90;;;;;;5052450;28;20056;-80
2024/01/17 03:08:10;;;;;;;14.50;9.52;;;0.70;99.90;;;;;;5060963;28;20053;-80
2024/01/17 03:10:35;;;;;;;17.63;9.13;;;0.30;99.90;;;;;;5057711;28;20033;-80
2024/01/17 03:13:01;;;;;;;15.95;8.40;;;0.30;99.90;;;;;;5052328;28;20449;-78
2024/01/17 03:15:27;;;;;;;13.05;8.35;;;0.30;99.90;;;;;;5056136;28;20098;-80
2024/01/17 03:17:53;;;;;;;15.82;9.32;;;0.30;99.90;;;;;;5064075;28;20496;-78
2024/01/17 03:20:18;;;;;;;15.57;7.90;;;0.50;99.90;;;;;;5059415;28;20124;-79
2024/01/17 03:22:44;;;;;;;15.48;9.07;;;0.80;99.90;;;;;;5068178;28;20133;-80
2024/01/17 03:25:10;;;;;;;15.93;9.25;;;0.30;99.90;;;;;;5060482;28;20128;-78
2024/01/17 03:27:36;;;;;;;15.27;9.68;;;0.30;99.90;;;;;;5052792;28;20119;-80
2024/01/17 03:30:03;;;;;;;13.48;8.63;;;0.30;99.90;;;;;;5061633;28;20094;-79
2024/01/17 03:32:29;;;;;;;15.70;8.88;;;0.30;99.90;;;;;;5053723;28;20044;-80
2024/01/17 03:34:57;;;;;;;18.52;9.55;;;0.30;99.90;;;;;;5045961;28;20579;-80
2024/01/17 03:37:23;;;;;;;19.05;9.68;;;1.10;99.90;;;;;;5062299;28;20091;-79
2024/01/17 03:39:49;;;;;;;16.02;8.60;;;0.40;99.90;;;;;;5062067;28;20052;-79
2024/01/17 03:42:17;;;;;;;14.27;9.52;;;0.30;99.90;;;;;;5070561;28;20052;-80
2024/01/17 03:44:44;;;;;;;20.08;9.88;;;0.30;99.90;;;;;;5066116;28;20040;-78
2024/01/17 03:47:10;;;;;;;17.55;9.57;;;0.30;99.90;;;;;;5067093;28;20694;-79
2024/01/17 03:49:36;;;;;;;17.75;9.45;;;0.30;99.90;;;;;;5036754;28;20041;-80
2024/01/17 03:52:02;;;;;;;14.75;8.68;;;0.20;99.90;;;;;;5066002;28;20043;-78
2024/01/17 03:54:27;;;;;;;23.80;11.38;;;0.20;99.90;;;;;;5052801;28;20044;-78
2024/01/17 03:56:53;;;;;;;17.83;9.75;;;0.20;99.90;;;;;;5059629;28;20044;-80
2024/01/17 03:59:19;;;;;;;16.67;9.65;;;0.20;99.90;;;;;;5058908;28;20044;-80
2024/01/17 04:01:46;;;;;;;16.30;9.95;;;0.20;99.90;;;;;;5061358;28;20057;-79
2024/01/17 04:04:11;;;;;;;16.50;9.68;;;0.20;99.90;;;;;;5060632;28;20064;-79
2024/01/17 04:06:37;;;;;;;17.98;9.27;;;0.20;99.90;;;;;;5051110;28;20501;-80
2024/01/17 04:09:03;;;;;;;16.88;8.35;;;0.20;99.90;;;;;;5060373;28;20069;-78
2024/01/17 04:11:29;;;;;;;15.18;9.88;;;0.20;99.90;;;;;;5052107;28;20499;-81
2024/01/17 04:13:55;;;;;;;16.80;9.85;;;0.30;99.90;;;;;;5064378;28;20128;-80
2024/01/17 04:16:21;;;;;;;15.73;9.05;;;0.20;99.90;;;;;;5061497;28;20368;-79
2024/01/17 04:18:47;;;;;;;15.63;9.68;;;0.20;99.90;;;;;;5066826;28;20052;-79
2024/01/17 04:21:18;;;;;;;19.05;10.38;;;0.20;99.90;;;;;;5066812;28;20544;-79
2024/01/17 04:23:44;;;;;;;26.92;12.10;;;0.90;99.90;;;;;;5058513;28;20053;-78
2024/01/17 04:26:23;;;;;;;17.92;10.55;;;1.10;99.90;;;;;;5061863;28;20053;-80
2024/01/17 04:28:50;;;;;;;16.95;10.48;;;0.20;99.90;;;;;;5053762;28;20459;-79
2024/01/17 04:31:26;;;;;;;21.15;10.50;;;0.20;99.90;;;;;;5049853;28;20049;-82
2024/01/17 04:33:52;;;;;;;12.93;8.50;;;0.20;99.90;;;;;;5057936;28;20044;-79
2024/01/17 04:36:19;;;;;;;17.70;9.40;;;0.20;99.90;;;;;;5063552;28;20076;-79
2024/01/17 04:38:45;;;;;;;15.15;10.25;;;0.70;99.90;;;;;;5051298;28;20052;-80
2024/01/17 04:41:12;;;;;;;15.45;9.38;;;0.20;99.90;;;;;;5065976;28;20052;-78
2024/01/17 04:43:42;;;;;;;18.80;11.85;;;0.60;99.90;;;;;;5065102;28;20438;-79
2024/01/17 04:46:12;;;;;;;19.23;11.13;;;0.20;99.90;;;;;;5063843;28;20112;-79
2024/01/17 04:48:39;;;;;;;24.63;12.57;;;0.10;99.90;;;;;;5058606;28;20076;-80
2024/01/17 04:51:05;;;;;;;22.35;11.15;;;0.10;99.90;;;;;;5064548;28;20051;-80
2024/01/17 04:53:32;;;;;;;20.02;11.70;;;0.10;99.90;;;;;;5054433;28;20053;-80
2024/01/17 04:55:59;;;;;;;20.38;11.32;;;0.60;99.90;;;;;;5054773;28;20047;-79
2024/01/17 04:58:26;;;;;;;19.10;10.98;;;0.10;99.90;;;;;;5054715;28;20102;-80
2024/01/17 05:00:52;;;;;;;22.35;11.93;;;0.10;99.90;;;;;;5051165;28;20103;-79
2024/01/17 05:03:17;;;;;;;19.48;11.60;;;0.00;99.90;;;;;;5061797;28;20041;-79
2024/01/17 05:05:46;;;;;;;20.83;11.32;;;0.00;99.90;;;;;;5057191;28;20067;-78
2024/01/17 05:08:12;;;;;;;20.27;11.27;;;0.00;99.90;;;;;;5067181;28;20048;-78
2024/01/17 05:10:41;;;;;;;18.02;11.02;;;0.30;99.90;;;;;;5053215;28;20041;-79
2024/01/17 05:13:07;;;;;;;23.17;11.95;;;0.00;99.90;;;;;;5054849;28;20052;-79
2024/01/17 05:15:32;;;;;;;20.38;11.30;;;0.20;99.90;;;;;;5066699;28;20048;-78
2024/01/17 05:17:58;;;;;;;20.77;10.95;;;0.00;99.90;;;;;;5044425;28;20036;-78
2024/01/17 05:20:24;;;;;;;15.80;10.27;;;0.10;99.90;;;;;;5068344;28;20048;-78
2024/01/17 05:22:49;;;;;;;21.10;12.30;;;0.00;99.90;;;;;;5061864;28;20084;-79
2024/01/17 05:25:15;;;;;;;16.67;10.77;;;0.00;99.90;;;;;;5067742;28;20052;-80
2024/01/17 05:27:41;;;;;;;19.65;10.50;;;0.80;99.90;;;;;;5059564;28;20052;-81
2024/01/17 05:30:10;;;;;;;19.80;10.85;;;0.00;99.90;;;;;;5061830;28;20052;-80
2024/01/17 05:32:37;;;;;;;16.35;10.52;;;-0.10;99.90;;;;;;5061101;28;20074;-80
2024/01/17 05:35:04;;;;;;;17.85;10.90;;;0.70;99.90;;;;;;5066955;28;20103;-79
2024/01/17 05:37:30;;;;;;;16.83;10.68;;;-0.10;99.90;;;;;;5047022;28;20055;-80
2024/01/17 05:39:56;;;;;;;13.65;10.23;;;-0.10;99.90;;;;;;5062965;28;20036;-80
2024/01/17 05:42:21;;;;;;;17.23;10.73;;;-0.10;99.90;;;;;;5067390;28;20049;-78
2024/01/17 05:44:47;;;;;;;16.77;10.10;;;-0.10;99.90;;;;;;5064134;28;20041;-80
2024/01/17 05:47:14;;;;;;;18.65;10.55;;;-0.10;99.90;;;;;;5064272;28;20123;-78
2024/01/17 05:49:39;;;;;;;16.58;11.45;;;-0.10;99.90;;;;;;5056193;28;20052;-79
2024/01/17 05:52:05;;;;;;;22.38;12.00;;;-0.10;99.90;;;;;;5063549;28;20048;-80
2024/01/17 05:54:31;;;;;;;17.95;10.35;;;-0.10;99.90;;;;;;5068637;28;20054;-79
2024/01/17 05:56:57;;;;;;;19.85;11.45;;;-0.10;99.90;;;;;;5057313;28;20860;-80
2024/01/17 05:59:23;;;;;;;17.05;10.00;;;-0.10;99.90;;;;;;5063647;28;20390;-78
2024/01/17 06:01:48;;;;;;;14.30;8.90;;;-0.10;99.90;;;;;;5064413;28;20122;-79
2024/01/17 06:04:14;;;;;;;16.27;10.45;;;-0.20;99.90;;;;;;5064569;28;20052;-79
2024/01/17 06:06:40;;;;;;;24.20;10.45;;;0.80;99.90;;;;;;5068251;28;20039;-80
2024/01/17 06:09:07;;;;;;;17.83;9.73;;;0.70;99.90;;;;;;5060224;28;20102;-79
2024/01/17 06:11:32;;;;;;;15.35;9.43;;;-0.20;99.90;;;;;;5063025;28;20048;-78
2024/01/17 06:13:59;;;;;;;14.07;9.85;;;0.10;99.90;;;;;;5069127;28;20110;-80
2024/01/17 06:16:26;;;;;;;17.50;10.18;;;-0.30;99.90;;;;;;5061112;28;20095;-79
2024/01/17 06:18:51;;;;;;;16.70;9.73;;;0.10;99.90;;;;;;5061940;28;20047;-79
2024/01/17 06:21:17;;;;;;;14.50;8.70;;;0.40;99.90;;;;;;5064202;28;20044;-79
2024/01/17 06:23:44;;;;;;;17.08;9.82;;;-0.30;99.90;;;;;;5064405;28;20045;-79
2024/01/17 06:26:09;;;;;;;15.52;9.30;;;-0.30;99.90;;;;;;5060682;28;20055;-79
2024/01/17 06:28:35;;;;;;;16.20;10.65;;;-0.30;99.90;;;;;;5060148;28;20496;-80
2024/01/17 06:31:03;;;;;;;15.15;10.00;;;-0.30;99.90;;;;;;5070052;28;20037;-79
2024/01/17 06:33:29;;;;;;;17.20;9.40;;;-0.30;99.90;;;;;;5060871;28;20053;-80
2024/01/17 06:35:57;;;;;;;15.05;10.07;;;-0.30;99.90;;;;;;5060764;28;20060;-80
2024/01/17 06:38:23;;;;;;;14.35;9.18;;;-0.30;99.90;;;;;;5061019;28;20154;-79
2024/01/17 06:40:49;;;;;;;17.00;10.23;;;-0.30;99.90;;;;;;5060224;28;20043;-80
2024/01/17 06:43:15;;;;;;;15.70;8.82;;;0.30;99.90;;;;;;5061724;28;20049;-79
2024/01/17 06:45:41;;;;;;;15.38;9.35;;;-0.30;99.90;;;;;;5062849;28;20365;-79
2024/01/17 06:48:07;;;;;;;16.20;9.23;;;-0.30;99.90;;;;;;5060189;28;20045;-79
2024/01/17 06:50:33;;;;;;;14.50;8.75;;;-0.30;99.90;;;;;;5062039;28;20120;-80
2024/01/17 06:52:58;;;;;;;16.42;9.38;;;-0.30;99.90;;;;;;5065916;28;20055;-80
2024/01/17 06:55:25;;;;;;;14.93;9.48;;;-0.30;99.90;;;;;;5058330;28;20087;-78
2024/01/17 06:57:51;;;;;;;16.48;10.43;;;-0.30;99.90;;;;;;5053487;28;20048;-78
2024/01/17 07:00:17;;;;;;;19.10;9.15;;;-0.40;99.90;;;;;;5060208;28;20504;-79
2024/01/17 07:02:43;;;;;;;13.38;8.32;;;-0.40;99.90;;;;;;5057026;28;20365;-78
2024/01/17 07:05:09;;;;;;;15.25;9.20;;;-0.40;99.90;;;;;;5058185;28;20051;-80
2024/01/17 07:07:37;;;;;;;19.85;8.43;;;-0.40;99.90;;;;;;5052753;28;20148;-78
2024/01/17 07:10:05;;;;;;;12.10;8.30;;;-0.50;99.90;;;;;;5070248;28;20098;-80
2024/01/17 07:12:31;;;;;;;16.52;9.63;;;-0.50;99.90;;;;;;5065007;28;20365;-78
2024/01/17 07:14:56;;;;;;;14.82;9.38;;;-0.50;99.90;;;;;;5068510;28;20044;-78
2024/01/17 07:17:22;;;;;;;17.55;10.25;;;-0.20;99.90;;;;;;5052449;28;20372;-77
2024/01/17 07:19:48;;;;;;;16.73;9.73;;;-0.60;99.90;;;;;;5052717;28;20102;-79
2024/01/17 07:22:13;;;;;;;14.73;9.10;;;-0.60;99.90;;;;;;5059577;28;20061;-78
2024/01/17 07:24:39;;;;;;;16.48;9.73;;;-0.60;99.90;;;;;;5066637;28;20087;-80
2024/01/17 07:27:05;;;;;;;16.15;9.45;;;0.10;99.90;;;;;;5054868;28;20522;-80
2024/01/17 07:29:31;;;;;;;16.83;9.43;;;-0.60;99.90;;;;;;5050654;28;20124;-78
2024/01/17 07:31:56;;;;;;;16.05;9.23;;;-0.60;99.90;;;;;;5057023;28;20056;-79
2024/01/17 07:34:22;;;;;;;15.98;9.60;;;0.30;99.90;;;;;;5051650;28;20052;-79
2024/01/17 07:36:48;;;;;;;17.05;9.93;;;-0.60;99.90;;;;;;5054771;28;20036;-79
2024/01/17 07:39:18;;;;;;;17.33;9.00;;;-0.70;99.90;;;;;;5061685;28;20041;-79
2024/01/17 07:41:44;;;;;;;13.82;9.10;;;0.20;99.90;;;;;;5064765;28;20814;-79
2024/01/17 07:44:10;;;;;;;16.80;9.25;;;-0.70;99.90;;;;;;5070528;28;20044;-80
2024/01/17 07:46:36;;;;;;;16.60;10.77;;;-0.70;99.90;;;;;;5056909;28;20496;-79
2024/01/17 07:49:02;;;;;;;19.98;10.00;;;-0.60;99.90;;;;;;5050310;28;20637;-79
2024/01/17 07:51:27;;;;;;;16.90;10.52;;;0.30;99.90;;;;;;5055147;28;20115;-80
2024/01/17 07:53:53;;;;;;;21.15;10.30;;;-0.80;99.90;;;;;;5053832;28;20085;-79
2024/01/17 07:56:19;;;;;;;14.90;9.23;;;-0.80;99.90;;;;;;5062954;28;20092;-79
2024/01/17 07:58:48;;;;;;;17.48;10.00;;;-0.80;99.90;;;;;;5059417;28;20040;-79
2024/01/17 08:01:13;;;;;;;18.38;9.60;;;-0.80;99.90;;;;;;5056075;28;20130;-79
2024/01/17 08:03:39;;;;;;;15.95;9.27;;;-0.80;99.90;;;;;;5034261;28;20056;-80
2024/01/17 08:06:05;;;;;;;16.33;9.38;;;-0.90;99.90;;;;;;5060799;28;20049;-79
2024/01/17 08:08:31;;;;;;;19.45;10.00;;;-0.90;99.90;;;;;;5064355;28;20468;-79
2024/01/17 08:10:56;;;;;;;17.75;9.98;;;-0.90;99.90;;;;;;5066424;28;20037;-80
2024/01/17 08:13:22;;;;;;;21.73;10.65;;;-0.90;99.90;;;;;;5037162;28;20143;-79
2024/01/17 08:15:48;;;;;;;15.30;9.52;;;-0.90;99.90;;;;;;5056775;28;20060;-79
2024/01/17 08:18:13;;;;;;;18.52;9.18;;;-0.90;99.90;;;;;;5053488;28;20041;-79
2024/01/17 08:20:39;;;;;;;17.05;9.90;;;-0.80;99.90;;;;;;5051918;28;20099;-80
2024/01/17 08:23:05;;;;;;;17.42;9.77;;;-1.00;99.90;;;;;;5060163;28;20048;-80
2024/01/17 08:25:32;;;;;;;17.25;9.40;;;-1.00;99.90;;;;;;5040643;28;20053;-80
2024/01/17 08:27:59;;;;;;;18.08;9.38;;;-0.30;99.90;;;;;;5061257;28;20076;-80
2024/01/17 08:30:26;;;;;;;16.30;10.82;;;-1.00;99.90;;;;;;5050191;28;20088;-80
2024/01/17 08:32:53;;;;;;;14.25;9.80;;;-1.00;99.90;;;;;;5062812;28;20048;-79
2024/01/17 08:35:22;;;;;;;16.13;9.48;;;-1.00;99.90;;;;;;5062828;28;20040;-80
2024/01/17 08:37:48;;;;;;;15.68;9.27;;;-0.60;99.90;;;;;;5069899;28;20040;-79
2024/01/17 08:40:14;;;;;;;16.10;9.40;;;-0.90;99.90;;;;;;5054573;28;20555;-80
2024/01/17 08:42:39;;;;;;;18.42;8.93;;;-0.90;99.90;;;;;;5055239;28;20133;-79
2024/01/17 08:45:06;;;;;;;19.98;10.52;;;-0.90;99.90;;;;;;5058298;28;20064;-79
2024/01/17 08:47:32;;;;;;;17.27;9.90;;;-1.00;99.90;;;;;;5034614;28;20144;-80
2024/01/17 08:50:00;;;;;;;15.50;10.02;;;-1.00;99.90;;;;;;5039420;28;20435;-80
2024/01/17 08:52:26;;;;;;;17.92;10.13;;;-1.00;99.90;;;;;;5054612;28;20053;-80
2024/01/17 08:54:54;;;;;;;16.27;9.27;;;-0.90;99.90;;;;;;5058774;28;20040;-80
2024/01/17 08:57:20;;;;;;;19.20;10.85;;;-0.10;99.90;;;;;;5067020;28;20103;-80
2024/01/17 08:59:46;;;;;;;17.50;8.80;;;-0.90;99.90;;;;;;5057477;28;20044;-80
2024/01/17 09:02:12;;;;;;;17.27;8.57;;;-0.90;99.90;;;;;;5039793;28;20067;-76
2024/01/17 09:04:38;;;;;;;20.58;10.68;;;-0.60;99.90;;;;;;5052466;28;20460;-80
2024/01/17 09:07:03;;;;;;;18.73;9.32;;;-0.90;99.90;;;;;;5056453;28;20481;-78
2024/01/17 09:09:29;;;;;;;14.32;9.23;;;-0.90;99.90;;;;;;5072591;28;20049;-83
2024/01/17 09:11:56;;;;;;;15.18;9.82;;;-0.80;99.90;;;;;;5069763;28;20079;-79
2024/01/17 09:14:24;;;;;;;16.98;8.95;;;-0.50;99.90;;;;;;5062253;28;20045;-79
2024/01/17 09:16:51;;;;;;;18.25;8.85;;;-0.80;99.90;;;;;;5055201;28;20175;-81
2024/01/17 09:19:17;;;;;;;20.35;10.15;;;-0.80;99.90;;;;;;5038923;28;20064;-83
2024/01/17 09:21:43;;;;;;;20.30;10.38;;;-0.80;99.90;;;;;;5068536;28;20578;-80
2024/01/17 09:24:10;;;;;;;17.15;9.80;;;-0.80;99.90;;;;;;5073419;28;20048;-81
2024/01/17 09:26:36;;;;;;;14.55;9.75;;;-0.80;99.90;;;;;;5055407;28;20044;-79
2024/01/17 09:29:03;;;;;;;17.27;9.00;;;-1.00;99.90;;;;;;5021782;28;20573;-79
2024/01/17 09:31:28;;;;;;;18.05;10.15;;;-0.80;99.90;;;;;;5069153;28;20078;-79
2024/01/17 09:33:54;;;;;;;18.00;9.82;;;-0.80;99.90;;;;;;5056107;28;20045;-77
2024/01/17 09:36:20;;;;;;;20.77;9.00;;;-0.80;99.90;;;;;;5056290;28;20037;-80
2024/01/17 09:38:46;;;;;;;17.42;9.88;;;-0.70;99.90;;;;;;5062519;28;20040;-80
2024/01/17 09:41:11;;;;;;;17.23;8.85;;;-0.70;99.90;;;;;;5056189;28;20048;-79
2024/01/17 09:43:37;;;;;;;16.52;9.13;;;-0.70;99.90;;;;;;5063107;28;20459;-79
2024/01/17 09:46:04;;;;;;;19.38;10.00;;;0.40;99.90;;;;;;5069382;28;20128;-79
2024/01/17 09:48:30;;;;;;;20.48;9.77;;;-0.70;99.90;;;;;;5074999;28;20055;-80
2024/01/17 09:50:57;;;;;;;17.13;9.30;;;-0.60;99.90;;;;;;5066671;28;20045;-78
2024/01/17 09:53:31;;;;;;;18.25;10.60;;;-0.60;99.90;;;;;;5049787;28;20056;-79
2024/01/17 09:55:59;;;;;;;16.48;10.10;;;-0.50;99.90;;;;;;5066419;28;20044;-80
2024/01/17 09:58:32;;;;;;;21.13;12.40;;;-0.50;99.90;;;;;;5041023;28;20040;-80
2024/01/17 10:01:00;;;;;;;13.93;8.93;;;-0.50;99.90;;;;;;5073638;28;20054;-80
2024/01/17 10:03:28;;;;;;;16.77;8.82;;;-0.50;99.90;;;;;;5074055;28;20110;-79
2024/01/17 10:05:56;;;;;;;14.55;7.75;;;-0.40;99.90;;;;;;5059829;28;20067;-79
2024/01/17 10:08:26;;;;;;;14.52;8.10;;;-0.40;99.90;;;;;;5065908;28;20099;-79
2024/01/17 10:10:55;;;;;;;14.10;9.23;;;0.60;99.90;;;;;;5064711;28;20044;-78
2024/01/17 10:13:20;;;;;;;14.88;8.85;;;-0.30;99.90;;;;;;5037487;28;20447;-78
2024/01/17 10:15:46;;;;;;;17.15;7.82;;;-0.30;99.90;;;;;;5053551;28;20048;-78
2024/01/17 10:18:12;;;;;;;15.07;8.80;;;-0.20;99.90;;;;;;5053493;28;20049;-77
2024/01/17 10:20:38;;;;;;;13.13;7.45;;;-0.10;99.90;;;;;;5058799;28;20556;-78
2024/01/17 10:23:06;;;;;;;18.08;9.00;;;-0.10;99.90;;;;;;5065686;28;20114;-79
2024/01/17 10:25:40;;;;;;;12.73;7.93;;;-0.10;99.90;;;;;;5057109;28;20110;-77
2024/01/17 10:28:07;;;;;;;14.13;7.68;;;0.20;99.90;;;;;;5057838;28;20080;-78
2024/01/17 10:30:33;;;;;;;13.90;7.72;;;0.00;99.90;;;;;;5057097;28;20504;-77
2024/01/17 10:33:02;;;;;;;18.55;8.60;;;0.00;99.90;;;;;;5070675;28;20492;-77
2024/01/17 10:35:28;;;;;;;14.20;9.02;;;0.10;99.90;;;;;;5073336;28;20049;-78
2024/01/17 10:37:54;;;;;;;15.32;8.25;;;0.10;99.90;;;;;;5073190;28;20083;-77
2024/01/17 10:40:20;;;;;;;19.65;9.38;;;0.80;99.90;;;;;;5073590;28;20080;-79
2024/01/17 10:42:46;;;;;;;13.93;8.50;;;0.40;99.90;;;;;;5066977;28;20131;-78
2024/01/17 10:45:22;;;;;;;13.63;6.97;;;0.10;99.90;;;;;;5072995;28;20468;-77
2024/01/17 10:47:48;;;;;;;16.27;8.18;;;0.10;99.90;;;;;;5036300;28;20076;-78
2024/01/17 10:50:17;;;;;;;14.85;8.43;;;0.10;99.90;;;;;;5053159;28;20083;-77
2024/01/17 10:52:46;;;;;;;13.82;8.00;;;0.60;99.90;;;;;;5053400;28;20053;-75
2024/01/17 10:55:17;;;;;;;16.48;8.00;;;0.20;99.90;;;;;;5067502;28;20109;-78
2024/01/17 10:57:49;;;;;;;15.02;8.05;;;0.20;99.90;;;;;;5056203;28;20155;-76
2024/01/17 11:00:17;;;;;;;15.57;7.38;;;0.20;99.90;;;;;;5071913;28;20129;-78
2024/01/17 11:02:44;;;;;;;17.55;8.10;;;0.30;99.90;;;;;;5052911;28;20132;-78
2024/01/17 11:05:13;;;;;;;16.08;7.40;;;0.30;99.90;;;;;;5053106;28;20048;-80
2024/01/17 11:07:40;;;;;;;12.85;7.03;;;0.40;99.90;;;;;;5052382;28;20147;-79
2024/01/17 11:10:07;;;;;;;14.18;7.40;;;0.80;99.90;;;;;;5053469;28;20053;-79
2024/01/17 11:12:36;;;;;;;14.00;6.97;;;0.40;99.90;;;;;;5069561;28;20044;-78
2024/01/17 11:15:06;;;;;;;15.55;7.32;;;0.40;99.90;;;;;;5071418;28;20053;-78
2024/01/17 11:17:39;;;;;;;13.25;7.38;;;0.40;99.90;;;;;;5043101;28;20045;-78
2024/01/17 11:20:08;;;;;;;13.05;7.57;;;1.10;99.90;;;;;;5061579;28;20052;-77
2024/01/17 11:22:41;;;;;;;13.00;7.85;;;0.40;99.90;;;;;;5068885;28;20064;-78
2024/01/17 11:25:16;;;;;;;15.63;8.27;;;0.50;99.90;;;;;;5071280;28;20157;-78
2024/01/17 11:27:47;;;;;;;14.55;7.57;;;0.50;99.90;;;;;;5071609;28;20053;-77
2024/01/17 11:30:52;;;;;;;14.15;7.43;;;0.50;99.90;;;;;;5055456;28;20045;-77
2024/01/17 11:33:20;;;;;;;11.15;6.70;;;0.50;99.90;;;;;;5077723;28;20075;-76
2024/01/17 11:35:48;;;;;;;11.32;7.18;;;0.50;99.90;;;;;;5081726;28;20052;-79
2024/01/17 11:38:23;;;;;;;16.80;8.30;;;0.50;99.90;;;;;;5052234;28;20485;-78
2024/01/17 11:41:07;;;;;;;12.20;7.53;;;0.80;99.90;;;;;;5061576;28;20051;-78
2024/01/17 11:43:41;;;;;;;13.02;7.65;;;0.50;99.90;;;;;;5072302;28;20076;-77
2024/01/17 11:46:09;;;;;;;13.13;7.38;;;0.50;99.90;;;;;;5069527;28;20048;-78
2024/01/17 11:48:37;;;;;;;14.93;7.55;;;0.50;99.90;;;;;;5067466;28;20613;-78
2024/01/17 11:51:11;;;;;;;14.57;7.57;;;1.10;99.90;;;;;;5053622;28;20033;-78
2024/01/17 11:53:40;;;;;;;13.93;8.32;;;0.60;99.90;;;;;;5064109;28;20651;-79
2024/01/17 11:56:08;;;;;;;13.75;7.45;;;0.60;99.90;;;;;;5054451;28;20136;-79
2024/01/17 11:58:42;;;;;;;15.85;7.50;;;0.70;99.90;;;;;;5051477;28;20092;-78
2024/01/17 12:01:12;;;;;;;21.87;11.07;;;1.20;99.90;;;;;;5043059;28;20091;-78
2024/01/17 12:03:39;;;;;;;13.73;7.63;;;0.70;99.90;;;;;;5067486;28;20051;-78
2024/01/17 12:06:08;;;;;;;12.48;7.28;;;1.80;99.90;;;;;;5061077;28;20053;-79
2024/01/17 12:08:36;;;;;;;12.27;7.38;;;0.80;99.90;;;;;;5065154;28;20081;-79
2024/01/17 12:11:02;;;;;;;14.05;7.45;;;0.80;99.90;;;;;;5046206;28;20037;-78
2024/01/17 12:13:28;;;;;;;17.20;9.30;;;0.70;99.90;;;;;;5057351;28;20048;-78
2024/01/17 12:15:56;;;;;;;15.60;7.85;;;0.80;99.90;;;;;;5057311;28;20425;-78
2024/01/17 12:18:24;;;;;;;14.32;7.90;;;1.20;99.90;;;;;;5058660;28;20571;-78
2024/01/17 12:20:51;;;;;;;13.73;8.02;;;0.60;99.90;;;;;;5055127;28;20049;-79
2024/01/17 12:23:24;;;;;;;14.27;8.00;;;0.60;99.90;;;;;;5053784;28;20099;-79
2024/01/17 12:25:53;;;;;;;12.73;7.07;;;0.60;99.90;;;;;;5053327;28;20116;-79
2024/01/17 12:28:23;;;;;;;12.60;6.80;;;1.10;99.90;;;;;;5054817;28;20048;-80
2024/01/17 12:31:06;;;;;;;14.45;7.82;;;0.60;99.90;;;;;;5053057;28;20047;-79
2024/01/17 12:33:33;;;;;;;12.80;7.03;;;0.60;99.90;;;;;;5052058;28;20113;-80
2024/01/17 12:36:00;;;;;;;18.27;7.80;;;0.60;99.90;;;;;;5063577;28;20048;-81
2024/01/17 12:38:30;;;;;;;13.77;8.00;;;0.60;99.90;;;;;;5064191;28;20393;-80
2024/01/17 12:40:57;;;;;;;14.75;7.97;;;0.60;99.90;;;;;;5068802;28;20044;-81